Time;durP1;ratioP1;P1;durP2;ratioP2;P2;SDS_P1;SDS_P2;PMS_P1;PMS_P2;Temp;Humidity;BMP_temperature;BMP_pressure;BME280_temperature;BME280_humidity;BME280_pressure;Samples;Min_cycle;Max_cycle;Signal;HPM_P1;HPM_P2
2023/03/07 00:00:50;;;;;;;;;;;;;;;21.38;25.48;97262.75;5049256;28;1909;-80
2023/03/07 00:03:16;;;;;;;;;;;;;;;21.82;24.66;97272.75;5088399;28;1906;-80
2023/03/07 00:05:41;;;;;;;;;;;;;;;22.22;24.33;97274.84;5077063;28;1185;-81
2023/03/07 00:08:07;;;;;;;;;;;;;;;22.04;24.17;97274.75;5039734;28;1300;-80
2023/03/07 00:10:32;;;;;;;;;;;;;;;21.94;24.47;97273.13;5073822;28;1181;-80
2023/03/07 00:12:58;;;;;;;;;;;;;;;21.61;25.03;97270.75;5053582;28;1209;-80
2023/03/07 00:15:24;;;;;;;;;;;;;;;21.88;24.82;97280.66;5019714;28;1818;-80
2023/03/07 00:17:50;;;;;;;;;;;;;;;22.01;24.42;97262.28;5053038;28;1340;-80
2023/03/07 00:20:15;;;;;;;;;;;;;;;22.16;24.21;97268.22;5053771;28;940;-80
2023/03/07 00:22:41;;;;;;;;;;;;;;;22.15;24.10;97269.47;5053201;28;1969;-80
2023/03/07 00:25:07;;;;;;;;;;;;;;;21.72;24.83;97256.97;5053641;28;1122;-79
2023/03/07 00:27:33;;;;;;;;;;;;;;;21.62;25.03;97258.19;5053687;28;1479;-80
2023/03/07 00:29:59;;;;;;;;;;;;;;;21.78;24.83;97260.78;5036342;28;2074;-80
2023/03/07 00:32:25;;;;;;;;;;;;;;;22.01;24.76;97250.19;5053359;28;928;-80
2023/03/07 00:34:50;;;;;;;;;;;;;;;22.11;24.25;97257.47;5053373;28;1193;-80
2023/03/07 00:37:16;;;;;;;;;;;;;;;21.91;24.57;97252.19;5038840;28;1424;-81
2023/03/07 00:39:41;;;;;;;;;;;;;;;21.71;24.82;97246.91;5033012;28;1409;-80
2023/03/07 00:42:07;;;;;;;;;;;;;;;21.77;24.76;97245.06;5052845;28;1906;-80
2023/03/07 00:44:33;;;;;;;;;;;;;;;22.06;24.72;97235.41;5065666;28;1671;-80
2023/03/07 00:46:58;;;;;;;;;;;;;;;21.99;24.47;97230.03;5097035;28;1061;-80
2023/03/07 00:49:24;;;;;;;;;;;;;;;22.07;24.32;97226.47;5041619;28;1122;-81
2023/03/07 00:51:50;;;;;;;;;;;;;;;21.92;24.47;97224.66;5035222;28;1977;-80
2023/03/07 00:54:15;;;;;;;;;;;;;;;21.63;25.26;97219.34;5033353;28;961;-80
2023/03/07 00:56:41;;;;;;;;;;;;;;;21.59;25.23;97202.47;5032984;28;1162;-79
2023/03/07 00:59:08;;;;;;;;;;;;;;;21.87;24.84;97209.06;5033427;28;1322;-80
2023/03/07 01:01:33;;;;;;;;;;;;;;;22.01;24.60;97204.84;5029421;28;1398;-81
2023/03/07 01:03:59;;;;;;;;;;;;;;;22.21;24.23;97196.75;5030154;28;1917;-79
2023/03/07 01:06:25;;;;;;;;;;;;;;;21.89;24.60;97202.94;5013926;28;1954;-80
2023/03/07 01:08:52;;;;;;;;;;;;;;;21.66;25.20;97192.91;5029740;28;1147;-80
2023/03/07 01:11:18;;;;;;;;;;;;;;;21.77;25.11;97196.13;5029519;28;987;-80
2023/03/07 01:13:43;;;;;;;;;;;;;;;21.98;24.84;97198.09;5032372;28;898;-80
2023/03/07 01:16:10;;;;;;;;;;;;;;;22.06;24.63;97196.53;5000345;28;931;-80
2023/03/07 01:18:36;;;;;;;;;;;;;;;22.04;24.39;97192.59;4983972;28;1190;-80
2023/03/07 01:21:01;;;;;;;;;;;;;;;21.77;24.79;97188.41;4996389;28;1900;-80
2023/03/07 01:23:27;;;;;;;;;;;;;;;21.59;25.25;97189.13;4981919;28;1911;-80
2023/03/07 01:25:52;;;;;;;;;;;;;;;22.07;24.51;97183.16;4995561;28;1214;-80
2023/03/07 01:28:18;;;;;;;;;;;;;;;22.29;24.18;97186.72;4996841;28;1562;-79
2023/03/07 01:30:44;;;;;;;;;;;;;;;22.24;24.44;97178.03;4997008;28;1273;-80
2023/03/07 01:33:10;;;;;;;;;;;;;;;21.85;24.95;97184.03;5013267;28;1102;-80
2023/03/07 01:35:37;;;;;;;;;;;;;;;21.57;25.40;97183.13;4995670;28;1948;-79
2023/03/07 01:38:02;;;;;;;;;;;;;;;21.41;25.35;97169.22;5018882;28;1071;-80
2023/03/07 01:40:29;;;;;;;;;;;;;;;21.94;24.99;97171.16;5036209;28;1425;-80
2023/03/07 01:43:11;;;;;;;;;;;;;;;22.08;24.65;97167.75;5035941;28;1906;-80
2023/03/07 01:45:37;;;;;;;;;;;;;;;22.35;23.97;97162.16;5036409;28;1932;-80
2023/03/07 01:48:03;;;;;;;;;;;;;;;21.81;24.57;97163.59;5035969;28;995;-80
2023/03/07 01:50:30;;;;;;;;;;;;;;;21.64;25.22;97159.41;5037815;28;1181;-80
2023/03/07 01:52:56;;;;;;;;;;;;;;;21.60;25.37;97158.75;5058670;28;922;-81
2023/03/07 01:55:23;;;;;;;;;;;;;;;22.01;24.70;97159.53;5091047;28;888;-81
2023/03/07 01:57:51;;;;;;;;;;;;;;;22.11;24.45;97155.50;5073701;28;1457;-80
2023/03/07 02:00:24;;;;;;;;;;;;;;;21.79;24.93;97166.06;5082532;28;1726;-79
2023/03/07 02:02:53;;;;;;;;;;;;;;;21.74;25.10;97158.19;5043099;28;1906;-80
2023/03/07 02:05:25;;;;;;;;;;;;;;;21.51;25.53;97161.56;5042936;28;1218;-79
2023/03/07 02:07:50;;;;;;;;;;;;;;;21.89;25.03;97164.06;5039166;28;1656;-80
2023/03/07 02:10:20;;;;;;;;;;;;;;;22.11;24.74;97161.16;5023598;28;1138;-81
2023/03/07 02:12:45;;;;;;;;;;;;;;;22.04;24.80;97158.59;5039116;28;939;-80
2023/03/07 02:15:11;;;;;;;;;;;;;;;21.72;25.02;97165.59;5022035;28;1991;-80
2023/03/07 02:17:38;;;;;;;;;;;;;;;21.71;25.09;97153.47;5018923;28;1736;-80
2023/03/07 02:20:04;;;;;;;;;;;;;;;21.57;25.48;97154.03;5019781;28;1114;-80
2023/03/07 02:22:30;;;;;;;;;;;;;;;21.90;24.98;97153.53;5019348;28;1910;-80
2023/03/07 02:25:01;;;;;;;;;;;;;;;22.07;24.85;97146.31;5003170;28;1138;-81
2023/03/07 02:27:29;;;;;;;;;;;;;;;21.96;25.09;97145.97;5019809;28;1240;-81
2023/03/07 02:29:55;;;;;;;;;;;;;;;21.79;24.86;97149.09;5017976;28;1779;-80
2023/03/07 02:32:21;;;;;;;;;;;;;;;21.77;25.30;97160.09;5035585;28;1225;-80
2023/03/07 02:34:47;;;;;;;;;;;;;;;21.55;25.32;97157.34;5019292;28;1257;-80
2023/03/07 02:37:28;;;;;;;;;;;;;;;22.04;24.66;97150.09;5039165;28;1256;-81
2023/03/07 02:39:55;;;;;;;;;;;;;;;21.93;25.14;97158.25;5039159;28;1271;-80
2023/03/07 02:42:27;;;;;;;;;;;;;;;21.88;24.98;97150.38;5073772;28;1909;-80
2023/03/07 02:45:00;;;;;;;;;;;;;;;21.58;25.43;97158.44;5072357;28;1140;-80
2023/03/07 02:47:29;;;;;;;;;;;;;;;21.67;25.11;97152.81;5071559;28;1171;-80
2023/03/07 02:49:56;;;;;;;;;;;;;;;21.59;25.30;97157.97;5022610;28;1287;-80
2023/03/07 02:52:22;;;;;;;;;;;;;;;21.93;24.86;97155.44;5038703;28;1145;-80
2023/03/07 02:54:48;;;;;;;;;;;;;;;22.08;24.57;97154.38;5022447;28;1138;-80
2023/03/07 02:57:14;;;;;;;;;;;;;;;21.97;24.78;97156.09;5058418;28;1907;-79
2023/03/07 02:59:39;;;;;;;;;;;;;;;21.63;25.47;97160.66;5058707;28;1125;-80
2023/03/07 03:02:05;;;;;;;;;;;;;;;21.67;25.36;97146.38;5055379;28;1906;-81
2023/03/07 03:04:31;;;;;;;;;;;;;;;21.78;25.16;97141.84;5075212;28;858;-80
2023/03/07 03:06:56;;;;;;;;;;;;;;;21.99;24.72;97150.72;5054816;28;1245;-81
2023/03/07 03:09:22;;;;;;;;;;;;;;;22.10;24.90;97145.41;5054975;28;1485;-81
2023/03/07 03:11:47;;;;;;;;;;;;;;;21.87;25.15;97149.59;5055011;28;912;-80
2023/03/07 03:14:14;;;;;;;;;;;;;;;21.65;25.34;97146.03;5021954;28;1358;-80
2023/03/07 03:16:41;;;;;;;;;;;;;;;21.66;25.47;97139.94;5050817;28;1814;-80
2023/03/07 03:19:06;;;;;;;;;;;;;;;21.77;25.14;97137.44;5034766;28;1452;-80
2023/03/07 03:21:32;;;;;;;;;;;;;;;22.03;24.99;97140.03;5018537;28;903;-80
2023/03/07 03:24:03;;;;;;;;;;;;;;;21.71;25.51;97130.81;5016091;28;1918;-81
2023/03/07 03:26:29;;;;;;;;;;;;;;;21.60;25.66;97138.94;5038746;28;1690;-80
2023/03/07 03:28:55;;;;;;;;;;;;;;;21.55;25.35;97129.03;5018830;28;954;-80
2023/03/07 03:31:20;;;;;;;;;;;;;;;22.12;24.72;97137.22;5018196;28;1260;-80
2023/03/07 03:33:48;;;;;;;;;;;;;;;22.04;25.05;97125.41;5018436;28;951;-81
2023/03/07 03:36:14;;;;;;;;;;;;;;;22.29;24.29;97135.69;5018205;28;1213;-81
2023/03/07 03:38:40;;;;;;;;;;;;;;;21.91;24.99;97135.28;5018241;28;1237;-80
2023/03/07 03:41:09;;;;;;;;;;;;;;;21.67;25.52;97138.66;5017318;28;1761;-81
2023/03/07 03:43:36;;;;;;;;;;;;;;;21.46;25.65;97136.69;5025104;28;1910;-79
2023/03/07 03:46:02;;;;;;;;;;;;;;;22.09;24.74;97126.81;5058206;28;1282;-80
2023/03/07 03:48:28;;;;;;;;;;;;;;;22.04;24.82;97125.41;5038692;28;1125;-80
2023/03/07 03:51:00;;;;;;;;;;;;;;;22.23;24.86;97120.59;5072732;28;1677;-81
2023/03/07 03:53:26;;;;;;;;;;;;;;;21.92;25.14;97120.66;5068589;28;1930;-80
2023/03/07 03:55:52;;;;;;;;;;;;;;;21.59;25.35;97124.00;5054444;28;2026;-80
2023/03/07 03:58:17;;;;;;;;;;;;;;;21.87;25.17;97120.50;5070972;28;1194;-80
2023/03/07 04:00:43;;;;;;;;;;;;;;;22.02;24.80;97121.44;5071512;28;840;-81
2023/03/07 04:03:09;;;;;;;;;;;;;;;22.43;24.28;97110.81;5072136;28;1913;-81
2023/03/07 04:05:34;;;;;;;;;;;;;;;22.28;24.48;97110.69;5056079;28;1007;-80
2023/03/07 04:08:00;;;;;;;;;;;;;;;21.89;25.21;97106.63;5071874;28;1131;-80
2023/03/07 04:10:25;;;;;;;;;;;;;;;21.90;25.34;97113.88;5074461;28;1661;-81
2023/03/07 04:12:51;;;;;;;;;;;;;;;21.55;25.48;97111.25;5091141;28;1112;-79
2023/03/07 04:15:17;;;;;;;;;;;;;;;21.83;25.21;97112.91;5092058;28;1249;-80
2023/03/07 04:17:42;;;;;;;;;;;;;;;22.08;24.75;97114.72;5092003;28;954;-80
2023/03/07 04:20:13;;;;;;;;;;;;;;;22.19;24.68;97111.44;5092054;28;984;-81
2023/03/07 04:22:39;;;;;;;;;;;;;;;21.79;25.37;97103.78;5074716;28;1967;-80
2023/03/07 04:25:05;;;;;;;;;;;;;;;21.70;25.55;97109.41;5107885;28;2035;-80
2023/03/07 04:27:33;;;;;;;;;;;;;;;21.55;25.77;97105.59;5073257;28;2017;-80
2023/03/07 04:29:58;;;;;;;;;;;;;;;21.96;25.03;97112.00;5040709;28;1384;-80
2023/03/07 04:32:24;;;;;;;;;;;;;;;22.06;24.80;97111.53;5073678;28;1254;-80
2023/03/07 04:34:50;;;;;;;;;;;;;;;22.17;24.82;97104.66;5056925;28;1085;-80
2023/03/07 04:37:15;;;;;;;;;;;;;;;21.75;25.29;97114.47;5040373;28;1145;-80
2023/03/07 04:39:41;;;;;;;;;;;;;;;21.59;25.63;97106.22;5040292;28;2381;-81
2023/03/07 04:42:08;;;;;;;;;;;;;;;21.45;25.78;97101.13;5090608;28;1902;-80
2023/03/07 04:44:35;;;;;;;;;;;;;;;21.99;25.28;97113.91;5090429;28;1192;-81
2023/03/07 04:47:01;;;;;;;;;;;;;;;22.11;24.74;97118.66;5056445;28;1208;-80
2023/03/07 04:49:27;;;;;;;;;;;;;;;21.88;25.00;97116.41;5073404;28;1173;-81
2023/03/07 04:51:53;;;;;;;;;;;;;;;21.84;25.29;97117.31;5056636;28;951;-80
2023/03/07 04:54:19;;;;;;;;;;;;;;;21.61;25.78;97119.94;5062726;28;2044;-80
2023/03/07 04:56:47;;;;;;;;;;;;;;;21.81;25.33;97126.78;5041622;28;1141;-81
2023/03/07 04:59:12;;;;;;;;;;;;;;;22.01;25.30;97125.53;5033335;28;1126;-80
2023/03/07 05:01:39;;;;;;;;;;;;;;;22.18;24.63;97129.72;5016897;28;1438;-80
2023/03/07 05:04:05;;;;;;;;;;;;;;;21.72;25.60;97128.78;5033138;28;1925;-80
2023/03/07 05:06:30;;;;;;;;;;;;;;;21.82;25.44;97131.19;5033170;28;1616;-81
2023/03/07 05:08:56;;;;;;;;;;;;;;;21.56;25.72;97136.28;5033061;28;1166;-79
2023/03/07 05:11:22;;;;;;;;;;;;;;;21.65;25.56;97131.88;5033346;28;1137;-80
2023/03/07 05:13:49;;;;;;;;;;;;;;;21.96;25.02;97123.31;5033053;28;1105;-80
2023/03/07 05:16:18;;;;;;;;;;;;;;;22.25;24.73;97135.06;5032397;28;1243;-80
2023/03/07 05:18:43;;;;;;;;;;;;;;;21.73;25.22;97131.13;5033150;28;1210;-80
2023/03/07 05:21:09;;;;;;;;;;;;;;;21.62;25.84;97127.97;5048964;28;822;-80
2023/03/07 05:23:35;;;;;;;;;;;;;;;21.60;25.76;97133.28;5032839;28;1902;-80
2023/03/07 05:26:02;;;;;;;;;;;;;;;21.85;25.27;97147.22;5036622;28;924;-80
2023/03/07 05:28:27;;;;;;;;;;;;;;;22.30;24.68;97148.59;5064747;28;908;-80
2023/03/07 05:30:53;;;;;;;;;;;;;;;22.36;24.84;97152.38;5058675;28;917;-81
2023/03/07 05:33:19;;;;;;;;;;;;;;;21.88;25.51;97156.03;5057463;28;1263;-80
2023/03/07 05:35:45;;;;;;;;;;;;;;;21.72;25.40;97154.25;5074401;28;1251;-81
2023/03/07 05:38:12;;;;;;;;;;;;;;;21.62;25.73;97156.25;5074427;28;1106;-80
2023/03/07 05:40:39;;;;;;;;;;;;;;;21.79;25.41;97154.75;5074315;28;1252;-81
2023/03/07 05:43:05;;;;;;;;;;;;;;;22.01;25.08;97154.66;5057788;28;1978;-80
2023/03/07 05:45:31;;;;;;;;;;;;;;;22.25;24.89;97162.63;5057909;28;1339;-80
2023/03/07 05:47:59;;;;;;;;;;;;;;;21.84;25.27;97161.84;5073971;28;1152;-80
2023/03/07 05:50:24;;;;;;;;;;;;;;;21.50;25.79;97172.09;5079829;28;928;-80
2023/03/07 05:52:51;;;;;;;;;;;;;;;21.36;26.12;97167.00;5076330;28;1465;-80
2023/03/07 05:55:18;;;;;;;;;;;;;;;21.88;25.20;97173.03;5059972;28;1623;-80
2023/03/07 05:57:43;;;;;;;;;;;;;;;21.93;25.37;97175.25;5059713;28;1352;-80
2023/03/07 06:00:10;;;;;;;;;;;;;;;21.85;25.53;97172.69;5059918;28;1121;-80
2023/03/07 06:02:46;;;;;;;;;;;;;;;21.74;25.32;97169.53;5059444;28;1913;-79
2023/03/07 06:05:13;;;;;;;;;;;;;;;21.67;25.69;97166.97;5059615;28;1258;-80
2023/03/07 06:07:39;;;;;;;;;;;;;;;21.98;25.07;97171.81;5059629;28;1683;-81
2023/03/07 06:10:06;;;;;;;;;;;;;;;22.24;25.10;97175.22;5059341;28;1189;-80
2023/03/07 06:12:32;;;;;;;;;;;;;;;22.22;24.91;97175.66;5059214;28;1292;-80
2023/03/07 06:14:58;;;;;;;;;;;;;;;21.65;25.55;97165.84;5059427;28;901;-80
2023/03/07 06:17:24;;;;;;;;;;;;;;;21.70;25.37;97174.53;5059606;28;1198;-72
2023/03/07 06:19:49;;;;;;;;;;;;;;;21.79;26.04;97174.56;5059259;28;1028;-76
2023/03/07 06:22:15;;;;;;;;;;;;;;;21.94;25.69;97176.81;5042527;28;2085;-80
2023/03/07 06:24:41;;;;;;;;;;;;;;;21.47;26.69;97173.03;5039538;28;1103;-77
2023/03/07 06:27:08;;;;;;;;;;;;;;;22.12;25.56;97176.91;5039585;28;1678;-76
2023/03/07 06:29:34;;;;;;;;;;;;;;;22.24;25.50;97178.84;5040404;28;1039;-75
2023/03/07 06:32:00;;;;;;;;;;;;;;;22.35;25.51;97182.00;5057216;28;1145;-75
2023/03/07 06:34:25;;;;;;;;;;;;;;;22.30;25.84;97176.94;5090680;28;930;-77
2023/03/07 06:36:51;;;;;;;;;;;;;;;21.95;26.40;97184.06;5057242;28;836;-81
2023/03/07 06:39:19;;;;;;;;;;;;;;;21.94;26.61;97185.31;5092552;28;1250;-80
2023/03/07 06:41:47;;;;;;;;;;;;;;;22.03;26.56;97183.31;5075304;28;1243;-81
2023/03/07 06:44:13;;;;;;;;;;;;;;;22.28;26.52;97190.81;5075847;28;1969;-77
2023/03/07 06:46:39;;;;;;;;;;;;;;;21.90;26.92;97193.16;5075829;28;1240;-76
2023/03/07 06:49:10;;;;;;;;;;;;;;;22.02;26.87;97186.59;5075300;28;1246;-80
2023/03/07 06:51:36;;;;;;;;;;;;;;;22.28;26.72;97190.81;5075728;28;1142;-77
2023/03/07 06:54:02;;;;;;;;;;;;;;;22.64;25.90;97194.94;5053457;28;1532;-80
2023/03/07 06:56:30;;;;;;;;;;;;;;;22.88;25.52;97198.75;5038787;28;1198;-75
2023/03/07 06:58:56;;;;;;;;;;;;;;;22.99;25.63;97188.97;5042756;28;1614;-77
2023/03/07 07:01:23;;;;;;;;;;;;;;;22.37;26.57;97198.53;5042050;28;1896;-76
2023/03/07 07:03:51;;;;;;;;;;;;;;;22.31;26.51;97201.19;5012810;28;1906;-72
2023/03/07 07:06:17;;;;;;;;;;;;;;;22.09;26.52;97197.66;5050280;28;1148;-74
2023/03/07 07:08:43;;;;;;;;;;;;;;;22.36;26.35;97196.94;5054391;28;1077;-74
2023/03/07 07:11:09;;;;;;;;;;;;;;;22.20;26.47;97198.03;5021088;28;1103;-74
2023/03/07 07:13:35;;;;;;;;;;;;;;;22.23;26.40;97197.09;5037610;28;1225;-71
2023/03/07 07:16:03;;;;;;;;;;;;;;;22.06;26.73;97190.06;5054210;28;1185;-71
2023/03/07 07:18:28;;;;;;;;;;;;;;;21.97;27.03;97192.91;5037472;28;1126;-75
2023/03/07 07:20:54;;;;;;;;;;;;;;;21.55;27.37;97190.50;5071101;28;1411;-74
2023/03/07 07:23:20;;;;;;;;;;;;;;;21.30;28.09;97195.09;5070544;28;1894;-74
2023/03/07 07:25:46;;;;;;;;;;;;;;;21.46;27.75;97198.97;5070740;28;1159;-75
2023/03/07 07:28:12;;;;;;;;;;;;;;;21.42;27.84;97192.66;5070624;28;989;-74
2023/03/07 07:30:38;;;;;;;;;;;;;;;21.44;27.65;97196.56;5057476;28;1164;-75
2023/03/07 07:33:04;;;;;;;;;;;;;;;21.65;27.18;97194.94;5064886;28;1917;-74
2023/03/07 07:35:29;;;;;;;;;;;;;;;21.61;27.42;97196.38;5053497;28;1765;-75
2023/03/07 07:37:55;;;;;;;;;;;;;;;21.52;27.69;97194.28;5036047;28;1208;-75
2023/03/07 07:40:21;;;;;;;;;;;;;;;21.43;27.62;97197.06;5022323;28;2640;-74
2023/03/07 07:42:53;;;;;;;;;;;;;;;21.69;27.26;97195.59;5039081;28;1969;-75
2023/03/07 07:45:39;;;;;;;;;;;;;;;21.32;27.92;97198.25;5053184;28;1106;-75
2023/03/07 07:48:06;;;;;;;;;;;;;;;21.44;27.82;97198.63;5027138;28;1760;-75
2023/03/07 07:50:32;;;;;;;;;;;;;;;21.47;27.87;97194.88;5053028;28;1347;-75
2023/03/07 07:52:57;;;;;;;;;;;;;;;21.51;27.67;97204.03;5028184;28;1252;-74
2023/03/07 07:55:23;;;;;;;;;;;;;;;21.49;27.76;97198.81;5036066;28;1261;-74
2023/03/07 07:57:50;;;;;;;;;;;;;;;21.63;27.31;97191.81;5072522;28;1308;-74
2023/03/07 08:00:20;;;;;;;;;;;;;;;21.50;27.52;97193.94;5026972;28;1340;-75
2023/03/07 08:02:49;;;;;;;;;;;;;;;21.79;26.83;97199.28;5012783;28;1977;-75
2023/03/07 08:05:15;;;;;;;;;;;;;;;21.56;27.23;97203.44;5032987;28;1139;-74
2023/03/07 08:07:40;;;;;;;;;;;;;;;21.70;27.20;97200.00;5049329;28;1408;-74
2023/03/07 08:10:14;;;;;;;;;;;;;;;21.53;27.48;97193.81;5093019;27;1449;-75
2023/03/07 08:12:41;;;;;;;;;;;;;;;21.56;27.27;97197.75;5124646;28;902;-74
2023/03/07 08:15:07;;;;;;;;;;;;;;;21.38;27.77;97197.66;5092842;28;849;-74
2023/03/07 08:17:32;;;;;;;;;;;;;;;21.66;27.29;97195.75;5108409;28;1355;-74
2023/03/07 08:20:00;;;;;;;;;;;;;;;21.58;27.34;97190.38;5108831;28;1135;-74
2023/03/07 08:22:26;;;;;;;;;;;;;;;21.55;27.46;97191.31;5091407;28;1212;-74
2023/03/07 08:24:51;;;;;;;;;;;;;;;21.48;27.35;97185.13;5074572;28;1118;-75
2023/03/07 08:27:17;;;;;;;;;;;;;;;21.55;27.38;97196.16;5091094;28;921;-74
2023/03/07 08:29:46;;;;;;;;;;;;;;;21.43;27.63;97192.19;5074212;28;1981;-74
2023/03/07 08:32:13;;;;;;;;;;;;;;;20.93;28.41;97190.41;5074538;28;982;-74
2023/03/07 08:34:38;;;;;;;;;;;;;;;21.56;27.51;97192.09;5072831;28;944;-74
2023/03/07 08:37:04;;;;;;;;;;;;;;;21.45;27.71;97186.03;5072862;28;947;-74
2023/03/07 08:39:29;;;;;;;;;;;;;;;21.35;27.60;97187.25;5089668;28;1076;-74
2023/03/07 08:41:55;;;;;;;;;;;;;;;21.62;27.28;97189.44;5052640;28;941;-74
2023/03/07 08:44:21;;;;;;;;;;;;;;;21.46;27.44;97188.44;5029391;28;1258;-74
2023/03/07 08:46:46;;;;;;;;;;;;;;;21.48;27.55;97185.91;5013189;28;946;-74
2023/03/07 08:49:12;;;;;;;;;;;;;;;21.29;27.32;97116.28;5029524;28;1979;-75
2023/03/07 08:51:37;;;;;;;;;;;;;;;21.40;27.85;97183.81;5012930;28;1120;-74
2023/03/07 08:54:03;;;;;;;;;;;;;;;21.44;27.68;97190.13;5029227;28;1259;-74
2023/03/07 08:56:29;;;;;;;;;;;;;;;21.41;27.63;97185.41;5013049;28;986;-74
2023/03/07 08:58:55;;;;;;;;;;;;;;;21.51;27.56;97179.34;5012818;28;1090;-74
2023/03/07 09:01:20;;;;;;;;;;;;;;;21.57;27.18;97176.69;5009058;28;1075;-74
2023/03/07 09:03:46;;;;;;;;;;;;;;;20.92;27.47;97092.69;5009228;28;2388;-74
2023/03/07 09:06:18;;;;;;;;;;;;;;;21.98;27.02;97166.94;5009351;28;1063;-74
2023/03/07 09:08:44;;;;;;;;;;;;;;;21.49;27.64;97166.88;5009420;28;2805;-74
2023/03/07 09:11:09;;;;;;;;;;;;;;;21.46;27.44;97170.66;5009305;28;913;-74
2023/03/07 09:13:35;;;;;;;;;;;;;;;21.42;27.62;97167.19;5024718;28;1205;-74
2023/03/07 09:16:04;;;;;;;;;;;;;;;21.42;27.64;97170.00;5028119;28;921;-75
2023/03/07 09:18:30;;;;;;;;;;;;;;;21.53;27.53;97164.72;5015688;28;948;-74
2023/03/07 09:20:58;;;;;;;;;;;;;;;21.44;27.51;97161.84;5022729;28;1094;-74
2023/03/07 09:23:23;;;;;;;;;;;;;;;21.31;27.77;97165.56;5019003;28;973;-75
2023/03/07 09:25:49;;;;;;;;;;;;;;;21.33;28.01;97163.03;5002789;28;852;-74
2023/03/07 09:28:14;;;;;;;;;;;;;;;21.61;27.39;97166.03;5035182;28;1984;-75
2023/03/07 09:30:40;;;;;;;;;;;;;;;21.63;27.14;97168.38;5018992;28;1010;-75
2023/03/07 09:33:06;;;;;;;;;;;;;;;21.64;27.13;97170.72;5048989;28;926;-75
2023/03/07 09:35:31;;;;;;;;;;;;;;;21.31;28.06;97170.44;5042080;28;1181;-75
2023/03/07 09:37:57;;;;;;;;;;;;;;;21.63;27.28;97169.16;5059937;28;1124;-75
2023/03/07 09:40:23;;;;;;;;;;;;;;;21.56;27.35;97175.13;5076446;28;893;-75
2023/03/07 09:42:52;;;;;;;;;;;;;;;21.49;27.53;97172.56;5076519;28;896;-75
2023/03/07 09:45:17;;;;;;;;;;;;;;;21.45;27.90;97164.22;5076606;28;1384;-74
2023/03/07 09:48:10;;;;;;;;;;;;;;;21.32;27.87;97164.28;5054841;28;1984;-74
2023/03/07 09:50:40;;;;;;;;;;;;;;;21.44;27.65;97167.50;5038159;28;1585;-75
2023/03/07 09:53:08;;;;;;;;;;;;;;;21.42;27.88;97155.84;5034299;28;1765;-74
2023/03/07 09:55:33;;;;;;;;;;;;;;;21.57;27.58;97148.38;5071164;28;1232;-68
2023/03/07 09:57:59;;;;;;;;;;;;;;;21.88;26.75;97156.03;5062629;28;1049;-69
2023/03/07 10:00:28;;;;;;;;;;;;;;;21.66;27.47;97151.25;5070303;28;1692;-70
2023/03/07 10:02:57;;;;;;;;;;;;;;;22.02;26.95;97149.78;5043985;28;1526;-73
2023/03/07 10:05:28;;;;;;;;;;;;;;;22.39;26.55;97141.38;5053769;28;1155;-73
2023/03/07 10:07:54;;;;;;;;;;;;;;;22.33;26.38;97136.34;5041376;28;1910;-72
2023/03/07 10:10:21;;;;;;;;;;;;;;;22.34;26.39;97137.91;5040725;28;1150;-73
2023/03/07 10:12:47;;;;;;;;;;;;;;;22.55;26.08;97135.41;5051241;28;1564;-73
2023/03/07 10:15:22;;;;;;;;;;;;;;;22.44;26.17;97135.88;5068343;28;1510;-72
2023/03/07 10:18:16;;;;;;;;;;;;;;;22.49;26.47;97131.63;5035668;28;1967;-73
2023/03/07 10:20:43;;;;;;;;;;;;;;;22.76;26.24;97123.09;4999296;28;1896;-77
2023/03/07 10:23:15;;;;;;;;;;;;;;;23.18;25.91;97130.16;4995189;28;1249;-76
2023/03/07 10:25:45;;;;;;;;;;;;;;;23.09;25.83;97122.44;5018723;28;1441;-77
2023/03/07 10:28:18;;;;;;;;;;;;;;;22.80;25.91;97129.41;5012880;28;1898;-74
2023/03/07 10:30:43;;;;;;;;;;;;;;;22.46;26.23;97116.34;5011010;28;1808;-74
2023/03/07 10:33:13;;;;;;;;;;;;;;;22.46;26.54;97115.56;5018839;28;2136;-74
2023/03/07 10:35:42;;;;;;;;;;;;;;;22.46;26.52;97115.56;5019744;28;2243;-75
2023/03/07 10:38:22;;;;;;;;;;;;;;;22.47;26.29;97122.78;5016426;28;1740;-74
2023/03/07 10:40:53;;;;;;;;;;;;;;;22.77;26.15;97107.66;5034214;28;1022;-79
2023/03/07 10:43:25;;;;;;;;;;;;;;;22.98;26.12;97105.13;5017590;28;953;-74
2023/03/07 10:45:56;;;;;;;;;;;;;;;23.25;25.74;97113.56;5017483;28;1081;-74
2023/03/07 10:48:21;;;;;;;;;;;;;;;23.06;25.96;97106.38;5022365;28;1906;-78
2023/03/07 10:51:00;;;;;;;;;;;;;;;22.19;27.44;97102.94;5030092;28;1031;-74
2023/03/07 10:53:26;;;;;;;;;;;;;;;22.98;25.93;97102.28;5015198;28;2429;-73
2023/03/07 10:55:52;;;;;;;;;;;;;;;22.98;25.91;97093.78;5019978;28;1933;-75
2023/03/07 10:58:18;;;;;;;;;;;;;;;22.20;27.32;97092.41;5066618;28;1973;-80
2023/03/07 11:00:45;;;;;;;;;;;;;;;22.54;26.46;97088.47;5076265;28;974;-73
2023/03/07 11:03:43;;;;;;;;;;;;;;;21.79;27.70;97086.78;5053854;28;1265;-70
2023/03/07 11:06:24;;;;;;;;;;;;;;;22.06;26.83;97088.09;5014005;28;1053;-70
2023/03/07 11:08:50;;;;;;;;;;;;;;;22.76;25.85;97082.63;4998026;28;1914;-78
2023/03/07 11:11:23;;;;;;;;;;;;;;;22.49;25.94;97074.94;5014701;28;1356;-76
2023/03/07 11:14:10;;;;;;;;;;;;;;;22.50;26.09;97071.63;5016951;28;2000;-74
2023/03/07 11:16:58;;;;;;;;;;;;;;;22.92;25.28;97073.00;5014249;28;1041;-77
2023/03/07 11:19:39;;;;;;;;;;;;;;;22.83;25.25;97071.72;4964746;28;1091;-74
2023/03/07 11:22:24;;;;;;;;;;;;;;;23.17;25.14;97064.09;4959271;28;1015;-73
2023/03/07 11:24:51;;;;;;;;;;;;;;;23.08;24.95;97064.91;4950803;28;2553;-74
2023/03/07 11:27:24;;;;;;;;;;;;;;;23.06;24.88;97052.47;4959025;28;1029;-78
2023/03/07 11:30:08;;;;;;;;;;;;;;;23.04;24.81;97046.47;4973440;28;1926;-76
2023/03/07 11:32:34;;;;;;;;;;;;;;;22.98;25.60;97052.00;4958511;28;1256;-75
2023/03/07 11:35:05;;;;;;;;;;;;;;;22.94;25.46;97042.88;4966305;28;1806;-75
2023/03/07 11:37:49;;;;;;;;;;;;;;;23.32;24.72;97050.00;4997214;28;1076;-76
2023/03/07 11:40:24;;;;;;;;;;;;;;;23.07;24.49;97034.19;4961587;28;1231;-73
2023/03/07 11:42:59;;;;;;;;;;;;;;;23.16;24.28;97037.00;5028415;28;1251;-73
2023/03/07 11:45:37;;;;;;;;;;;;;;;23.12;24.27;97040.00;5013243;28;1186;-71
2023/03/07 11:48:13;;;;;;;;;;;;;;;22.91;24.42;97028.88;4995335;28;2061;-72
2023/03/07 11:50:38;;;;;;;;;;;;;;;22.82;24.90;97024.75;4992518;28;1055;-71
2023/03/07 11:53:16;;;;;;;;;;;;;;;22.36;25.55;97033.34;5002309;28;1446;-84
2023/03/07 11:55:48;;;;;;;;;;;;;;;22.00;26.01;97022.00;5035144;28;1190;-84
2023/03/07 11:58:13;;;;;;;;;;;;;;;21.97;25.86;97022.97;5082092;28;748;-84
2023/03/07 12:00:45;;;;;;;;;;;;;;;22.15;26.16;97011.63;5077877;28;900;-75
2023/03/07 12:03:11;;;;;;;;;;;;;;;22.66;25.06;97010.94;5075810;28;976;-76
2023/03/07 12:05:39;;;;;;;;;;;;;;;22.62;24.96;97004.66;5074314;28;1060;-69
2023/03/07 12:08:05;;;;;;;;;;;;;;;22.51;25.01;97015.69;5074803;28;1977;-69
2023/03/07 12:10:34;;;;;;;;;;;;;;;22.48;24.91;97013.81;5075018;28;1180;-70
2023/03/07 12:13:05;;;;;;;;;;;;;;;22.34;25.36;97012.44;5073840;28;1109;-69
2023/03/07 12:15:46;;;;;;;;;;;;;;;22.42;25.13;97007.22;5084077;28;1832;-71
2023/03/07 12:18:21;;;;;;;;;;;;;;;22.54;25.14;97009.09;5094610;28;1639;-80
2023/03/07 12:20:54;;;;;;;;;;;;;;;22.02;25.80;97005.31;5054726;28;1123;-79
2023/03/07 12:23:32;;;;;;;;;;;;;;;21.88;26.00;97008.78;5074571;28;971;-80
2023/03/07 12:25:59;;;;;;;;;;;;;;;21.81;26.05;97015.53;5041860;28;1221;-80
2023/03/07 12:28:30;;;;;;;;;;;;;;;21.72;26.43;97019.16;5039661;28;1973;-80
2023/03/07 12:31:01;;;;;;;;;;;;;;;22.17;25.62;97020.44;5023753;28;1189;-80
2023/03/07 12:33:36;;;;;;;;;;;;;;;22.52;25.15;97014.44;5073396;28;892;-80
2023/03/07 12:36:03;;;;;;;;;;;;;;;22.07;25.92;97007.50;5040584;28;1429;-80
2023/03/07 12:38:48;;;;;;;;;;;;;;;21.98;25.83;97013.19;5033047;28;915;-79
2023/03/07 12:41:32;;;;;;;;;;;;;;;21.90;25.98;97007.03;5016994;28;884;-80
2023/03/07 12:43:58;;;;;;;;;;;;;;;21.97;25.92;97000.28;5033143;28;893;-81
2023/03/07 12:46:29;;;;;;;;;;;;;;;22.27;25.49;96996.50;5017349;28;943;-81
2023/03/07 12:48:59;;;;;;;;;;;;;;;22.20;25.61;96996.84;5033324;28;1910;-81
2023/03/07 12:51:27;;;;;;;;;;;;;;;22.08;25.80;96994.94;5000751;28;1118;-81
2023/03/07 12:53:54;;;;;;;;;;;;;;;21.93;26.29;96989.13;5000762;28;967;-81
2023/03/07 12:56:40;;;;;;;;;;;;;;;21.92;26.12;96983.94;5003350;28;1099;-80
2023/03/07 12:59:14;;;;;;;;;;;;;;;21.98;25.81;96985.66;5017260;28;1190;-81
2023/03/07 13:01:42;;;;;;;;;;;;;;;22.28;25.64;96998.09;5001018;28;1099;-80